sensor_id;sensor_type;location;lat;lon;timestamp;temperature;humidity
16287;DHT22;8251;53.568;10.018;2023-07-30T00:00:06;21.10;92.20
16287;DHT22;8251;53.568;10.018;2023-07-30T00:02:33;21.10;92.30
16287;DHT22;8251;53.568;10.018;2023-07-30T00:05:00;21.10;92.50
16287;DHT22;8251;53.568;10.018;2023-07-30T00:07:33;21.10;92.60
16287;DHT22;8251;53.568;10.018;2023-07-30T00:10:01;21.10;92.50
16287;DHT22;8251;53.568;10.018;2023-07-30T00:12:28;21.10;92.50
16287;DHT22;8251;53.568;10.018;2023-07-30T00:14:54;21.10;92.60
16287;DHT22;8251;53.568;10.018;2023-07-30T00:17:22;21.10;92.60
16287;DHT22;8251;53.568;10.018;2023-07-30T00:19:49;21.10;92.60
16287;DHT22;8251;53.568;10.018;2023-07-30T00:22:15;21.10;92.60
16287;DHT22;8251;53.568;10.018;2023-07-30T00:24:42;21.10;92.80
16287;DHT22;8251;53.568;10.018;2023-07-30T00:27:10;21.10;92.80
16287;DHT22;8251;53.568;10.018;2023-07-30T00:29:37;21.10;92.80
16287;DHT22;8251;53.568;10.018;2023-07-30T00:32:04;21.10;92.80
16287;DHT22;8251;53.568;10.018;2023-07-30T00:34:33;21.10;92.90
16287;DHT22;8251;53.568;10.018;2023-07-30T00:36:59;21.10;92.90
16287;DHT22;8251;53.568;10.018;2023-07-30T00:39:26;21.10;92.80
16287;DHT22;8251;53.568;10.018;2023-07-30T00:41:53;21.10;92.80
16287;DHT22;8251;53.568;10.018;2023-07-30T00:44:21;21.10;92.80
16287;DHT22;8251;53.568;10.018;2023-07-30T00:46:48;21.10;92.80
16287;DHT22;8251;53.568;10.018;2023-07-30T00:49:15;21.20;92.80
16287;DHT22;8251;53.568;10.018;2023-07-30T00:51:42;21.10;92.80
16287;DHT22;8251;53.568;10.018;2023-07-30T00:54:10;21.10;92.80
16287;DHT22;8251;53.568;10.018;2023-07-30T00:56:37;21.10;92.80
16287;DHT22;8251;53.568;10.018;2023-07-30T00:59:04;21.10;92.90
16287;DHT22;8251;53.568;10.018;2023-07-30T01:01:33;21.10;92.80
16287;DHT22;8251;53.568;10.018;2023-07-30T01:04:02;21.10;92.80
16287;DHT22;8251;53.568;10.018;2023-07-30T01:06:30;21.10;92.70
16287;DHT22;8251;53.568;10.018;2023-07-30T01:08:56;21.10;93.10
16287;DHT22;8251;53.568;10.018;2023-07-30T01:11:23;21.10;92.80
16287;DHT22;8251;53.568;10.018;2023-07-30T01:13:50;21.00;92.80
16287;DHT22;8251;53.568;10.018;2023-07-30T01:16:18;21.10;92.90
16287;DHT22;8251;53.568;10.018;2023-07-30T01:18:47;21.00;92.90
16287;DHT22;8251;53.568;10.018;2023-07-30T01:21:15;21.10;92.90
16287;DHT22;8251;53.568;10.018;2023-07-30T01:23:41;21.10;92.90
16287;DHT22;8251;53.568;10.018;2023-07-30T01:26:11;21.00;92.90
16287;DHT22;8251;53.568;10.018;2023-07-30T01:28:43;21.10;92.90
16287;DHT22;8251;53.568;10.018;2023-07-30T01:31:15;21.10;92.80
16287;DHT22;8251;53.568;10.018;2023-07-30T01:33:43;21.00;92.70
16287;DHT22;8251;53.568;10.018;2023-07-30T01:36:16;20.90;92.70
16287;DHT22;8251;53.568;10.018;2023-07-30T01:38:43;20.90;92.70
16287;DHT22;8251;53.568;10.018;2023-07-30T01:41:10;20.90;92.80
16287;DHT22;8251;53.568;10.018;2023-07-30T01:43:37;20.80;92.80
16287;DHT22;8251;53.568;10.018;2023-07-30T01:46:04;20.90;92.90
16287;DHT22;8251;53.568;10.018;2023-07-30T01:48:31;20.90;92.90
16287;DHT22;8251;53.568;10.018;2023-07-30T01:50:58;20.90;92.80
16287;DHT22;8251;53.568;10.018;2023-07-30T01:53:26;20.80;92.70
16287;DHT22;8251;53.568;10.018;2023-07-30T01:55:53;20.70;92.80
16287;DHT22;8251;53.568;10.018;2023-07-30T01:58:20;20.70;92.90
16287;DHT22;8251;53.568;10.018;2023-07-30T02:00:46;20.70;92.90
16287;DHT22;8251;53.568;10.018;2023-07-30T02:03:13;20.70;92.90
16287;DHT22;8251;53.568;10.018;2023-07-30T02:05:41;20.70;93.00
16287;DHT22;8251;53.568;10.018;2023-07-30T02:08:08;20.70;92.90
16287;DHT22;8251;53.568;10.018;2023-07-30T02:10:36;20.70;93.00
16287;DHT22;8251;53.568;10.018;2023-07-30T02:13:02;20.70;93.00
16287;DHT22;8251;53.568;10.018;2023-07-30T02:15:29;20.70;93.00
16287;DHT22;8251;53.568;10.018;2023-07-30T02:17:56;20.70;93.00
16287;DHT22;8251;53.568;10.018;2023-07-30T02:20:23;20.70;93.00
16287;DHT22;8251;53.568;10.018;2023-07-30T02:22:49;20.70;93.00
16287;DHT22;8251;53.568;10.018;2023-07-30T02:25:17;20.70;93.00
16287;DHT22;8251;53.568;10.018;2023-07-30T02:27:45;20.70;93.00
16287;DHT22;8251;53.568;10.018;2023-07-30T02:30:12;20.70;93.00
16287;DHT22;8251;53.568;10.018;2023-07-30T02:32:39;20.70;93.00
16287;DHT22;8251;53.568;10.018;2023-07-30T02:35:06;20.70;93.00
16287;DHT22;8251;53.568;10.018;2023-07-30T02:37:33;20.60;93.00
16287;DHT22;8251;53.568;10.018;2023-07-30T02:40:00;20.60;92.90
16287;DHT22;8251;53.568;10.018;2023-07-30T02:42:30;20.60;93.00
16287;DHT22;8251;53.568;10.018;2023-07-30T02:44:58;20.60;93.00
16287;DHT22;8251;53.568;10.018;2023-07-30T02:47:24;20.60;93.10
16287;DHT22;8251;53.568;10.018;2023-07-30T02:49:52;20.60;93.20
16287;DHT22;8251;53.568;10.018;2023-07-30T02:52:18;20.60;93.20
16287;DHT22;8251;53.568;10.018;2023-07-30T02:54:45;20.60;93.30
16287;DHT22;8251;53.568;10.018;2023-07-30T02:57:12;20.60;93.30
16287;DHT22;8251;53.568;10.018;2023-07-30T02:59:39;20.60;93.40
16287;DHT22;8251;53.568;10.018;2023-07-30T03:02:07;20.50;93.40
16287;DHT22;8251;53.568;10.018;2023-07-30T03:04:34;20.60;93.40
16287;DHT22;8251;53.568;10.018;2023-07-30T03:07:01;20.50;93.70
16287;DHT22;8251;53.568;10.018;2023-07-30T03:09:28;20.50;93.30
16287;DHT22;8251;53.568;10.018;2023-07-30T03:11:55;20.50;93.30
16287;DHT22;8251;53.568;10.018;2023-07-30T03:14:22;20.50;93.30
16287;DHT22;8251;53.568;10.018;2023-07-30T03:16:49;20.50;93.30
16287;DHT22;8251;53.568;10.018;2023-07-30T03:19:17;20.50;93.30
16287;DHT22;8251;53.568;10.018;2023-07-30T03:21:43;20.50;93.30
16287;DHT22;8251;53.568;10.018;2023-07-30T03:24:10;20.50;93.30
16287;DHT22;8251;53.568;10.018;2023-07-30T03:26:37;20.50;93.30
16287;DHT22;8251;53.568;10.018;2023-07-30T03:29:04;20.50;93.30
16287;DHT22;8251;53.568;10.018;2023-07-30T03:31:30;20.50;93.30
16287;DHT22;8251;53.568;10.018;2023-07-30T03:33:58;20.50;93.30
16287;DHT22;8251;53.568;10.018;2023-07-30T03:36:26;20.50;93.20
16287;DHT22;8251;53.568;10.018;2023-07-30T03:38:56;20.50;93.10
16287;DHT22;8251;53.568;10.018;2023-07-30T03:41:31;20.50;93.10
16287;DHT22;8251;53.568;10.018;2023-07-30T03:43:58;20.40;93.10
16287;DHT22;8251;53.568;10.018;2023-07-30T03:46:25;20.40;93.10
16287;DHT22;8251;53.568;10.018;2023-07-30T03:48:52;20.40;93.10
16287;DHT22;8251;53.568;10.018;2023-07-30T03:51:19;20.40;93.10
16287;DHT22;8251;53.568;10.018;2023-07-30T03:53:47;20.40;93.10
16287;DHT22;8251;53.568;10.018;2023-07-30T03:56:13;20.40;93.10
16287;DHT22;8251;53.568;10.018;2023-07-30T03:58:40;20.40;93.20
16287;DHT22;8251;53.568;10.018;2023-07-30T04:01:07;20.40;93.20
16287;DHT22;8251;53.568;10.018;2023-07-30T04:03:34;20.40;93.20
16287;DHT22;8251;53.568;10.018;2023-07-30T04:06:01;20.40;93.20
16287;DHT22;8251;53.568;10.018;2023-07-30T04:08:28;20.40;93.10
16287;DHT22;8251;53.568;10.018;2023-07-30T04:10:56;20.30;93.10
16287;DHT22;8251;53.568;10.018;2023-07-30T04:13:23;20.30;93.10
16287;DHT22;8251;53.568;10.018;2023-07-30T04:15:50;20.30;93.10
16287;DHT22;8251;53.568;10.018;2023-07-30T04:18:17;20.30;93.20
16287;DHT22;8251;53.568;10.018;2023-07-30T04:20:45;20.30;93.10
16287;DHT22;8251;53.568;10.018;2023-07-30T04:23:12;20.30;93.10
16287;DHT22;8251;53.568;10.018;2023-07-30T04:25:38;20.30;93.20
16287;DHT22;8251;53.568;10.018;2023-07-30T04:28:06;20.30;93.20
16287;DHT22;8251;53.568;10.018;2023-07-30T04:30:33;20.30;93.20
16287;DHT22;8251;53.568;10.018;2023-07-30T04:33:00;20.30;93.30
16287;DHT22;8251;53.568;10.018;2023-07-30T04:35:27;20.30;93.20
16287;DHT22;8251;53.568;10.018;2023-07-30T04:37:53;20.30;93.20
16287;DHT22;8251;53.568;10.018;2023-07-30T04:40:20;20.40;93.30
16287;DHT22;8251;53.568;10.018;2023-07-30T04:42:47;20.40;93.20
16287;DHT22;8251;53.568;10.018;2023-07-30T04:45:15;20.40;93.20
16287;DHT22;8251;53.568;10.018;2023-07-30T04:47:42;20.50;93.20
16287;DHT22;8251;53.568;10.018;2023-07-30T04:50:09;20.50;93.10
16287;DHT22;8251;53.568;10.018;2023-07-30T04:52:36;20.40;93.00
16287;DHT22;8251;53.568;10.018;2023-07-30T04:55:04;20.50;93.00
16287;DHT22;8251;53.568;10.018;2023-07-30T04:57:30;20.50;92.90
16287;DHT22;8251;53.568;10.018;2023-07-30T04:59:57;20.50;92.90
16287;DHT22;8251;53.568;10.018;2023-07-30T05:02:25;20.50;92.80
16287;DHT22;8251;53.568;10.018;2023-07-30T05:04:52;20.50;92.90
16287;DHT22;8251;53.568;10.018;2023-07-30T05:07:19;20.50;92.80
16287;DHT22;8251;53.568;10.018;2023-07-30T05:09:46;20.50;93.00
16287;DHT22;8251;53.568;10.018;2023-07-30T05:12:12;20.50;93.00
16287;DHT22;8251;53.568;10.018;2023-07-30T05:14:39;20.50;93.10
16287;DHT22;8251;53.568;10.018;2023-07-30T05:17:06;20.50;93.00
16287;DHT22;8251;53.568;10.018;2023-07-30T05:19:34;20.50;92.80
16287;DHT22;8251;53.568;10.018;2023-07-30T05:22:01;20.60;92.80
16287;DHT22;8251;53.568;10.018;2023-07-30T05:24:28;20.60;92.70
16287;DHT22;8251;53.568;10.018;2023-07-30T05:26:55;20.60;92.60
16287;DHT22;8251;53.568;10.018;2023-07-30T05:29:21;20.60;92.40
16287;DHT22;8251;53.568;10.018;2023-07-30T05:31:48;20.60;92.40
16287;DHT22;8251;53.568;10.018;2023-07-30T05:34:15;20.60;92.40
16287;DHT22;8251;53.568;10.018;2023-07-30T05:36:43;20.60;92.40
16287;DHT22;8251;53.568;10.018;2023-07-30T05:39:10;20.60;92.40
16287;DHT22;8251;53.568;10.018;2023-07-30T05:41:37;20.70;92.50
16287;DHT22;8251;53.568;10.018;2023-07-30T05:44:03;20.70;92.50
16287;DHT22;8251;53.568;10.018;2023-07-30T05:46:30;20.70;92.40
16287;DHT22;8251;53.568;10.018;2023-07-30T05:48:57;20.70;92.80
16287;DHT22;8251;53.568;10.018;2023-07-30T05:51:24;20.80;92.40
16287;DHT22;8251;53.568;10.018;2023-07-30T05:53:52;20.80;92.40
16287;DHT22;8251;53.568;10.018;2023-07-30T05:56:19;20.80;92.30
16287;DHT22;8251;53.568;10.018;2023-07-30T05:58:45;20.90;92.30
16287;DHT22;8251;53.568;10.018;2023-07-30T06:01:12;20.90;92.30
16287;DHT22;8251;53.568;10.018;2023-07-30T06:03:39;20.90;92.60
16287;DHT22;8251;53.568;10.018;2023-07-30T06:06:06;21.00;92.30
16287;DHT22;8251;53.568;10.018;2023-07-30T06:08:33;21.00;92.30
16287;DHT22;8251;53.568;10.018;2023-07-30T06:11:02;21.00;92.50
16287;DHT22;8251;53.568;10.018;2023-07-30T06:13:29;21.00;92.00
16287;DHT22;8251;53.568;10.018;2023-07-30T06:15:55;21.00;91.90
16287;DHT22;8251;53.568;10.018;2023-07-30T06:18:22;21.00;91.90
16287;DHT22;8251;53.568;10.018;2023-07-30T06:20:49;21.00;91.80
16287;DHT22;8251;53.568;10.018;2023-07-30T06:23:16;21.00;91.80
16287;DHT22;8251;53.568;10.018;2023-07-30T06:25:42;21.00;91.80
16287;DHT22;8251;53.568;10.018;2023-07-30T06:28:10;21.10;91.90
16287;DHT22;8251;53.568;10.018;2023-07-30T06:30:37;21.20;91.70
16287;DHT22;8251;53.568;10.018;2023-07-30T06:33:05;21.20;91.60
16287;DHT22;8251;53.568;10.018;2023-07-30T06:35:31;21.20;91.60
16287;DHT22;8251;53.568;10.018;2023-07-30T06:37:58;21.20;91.60
16287;DHT22;8251;53.568;10.018;2023-07-30T06:40:25;21.20;91.70
16287;DHT22;8251;53.568;10.018;2023-07-30T06:42:52;21.20;91.80
16287;DHT22;8251;53.568;10.018;2023-07-30T06:45:20;21.20;91.90
16287;DHT22;8251;53.568;10.018;2023-07-30T06:47:46;21.30;91.90
16287;DHT22;8251;53.568;10.018;2023-07-30T06:50:13;21.30;91.90
16287;DHT22;8251;53.568;10.018;2023-07-30T06:52:40;21.40;91.90
16287;DHT22;8251;53.568;10.018;2023-07-30T06:55:07;21.50;91.80
16287;DHT22;8251;53.568;10.018;2023-07-30T06:57:38;21.50;91.80
16287;DHT22;8251;53.568;10.018;2023-07-30T07:00:06;21.50;91.80
16287;DHT22;8251;53.568;10.018;2023-07-30T07:02:34;21.60;92.10
16287;DHT22;8251;53.568;10.018;2023-07-30T07:05:02;21.60;91.40
16287;DHT22;8251;53.568;10.018;2023-07-30T07:07:29;21.60;91.40
16287;DHT22;8251;53.568;10.018;2023-07-30T07:09:56;21.60;91.40
16287;DHT22;8251;53.568;10.018;2023-07-30T07:12:23;21.60;91.50
16287;DHT22;8251;53.568;10.018;2023-07-30T07:14:50;21.70;91.60
16287;DHT22;8251;53.568;10.018;2023-07-30T07:17:16;21.80;91.50
16287;DHT22;8251;53.568;10.018;2023-07-30T07:19:45;21.80;91.50
16287;DHT22;8251;53.568;10.018;2023-07-30T07:22:11;21.90;91.30
16287;DHT22;8251;53.568;10.018;2023-07-30T07:24:38;21.90;91.10
16287;DHT22;8251;53.568;10.018;2023-07-30T07:27:06;21.90;91.10
16287;DHT22;8251;53.568;10.018;2023-07-30T07:29:34;21.90;91.00
16287;DHT22;8251;53.568;10.018;2023-07-30T07:32:01;21.90;91.10
16287;DHT22;8251;53.568;10.018;2023-07-30T07:34:28;22.00;91.20
16287;DHT22;8251;53.568;10.018;2023-07-30T07:36:56;22.00;91.10
16287;DHT22;8251;53.568;10.018;2023-07-30T07:39:23;22.10;91.10
16287;DHT22;8251;53.568;10.018;2023-07-30T07:41:50;22.20;91.10
16287;DHT22;8251;53.568;10.018;2023-07-30T07:44:16;22.30;90.90
16287;DHT22;8251;53.568;10.018;2023-07-30T07:46:43;22.40;90.70
16287;DHT22;8251;53.568;10.018;2023-07-30T07:49:10;22.40;90.20
16287;DHT22;8251;53.568;10.018;2023-07-30T07:51:37;22.50;90.40
16287;DHT22;8251;53.568;10.018;2023-07-30T07:54:05;22.70;90.60
16287;DHT22;8251;53.568;10.018;2023-07-30T07:56:32;22.80;90.10
16287;DHT22;8251;53.568;10.018;2023-07-30T07:58:59;23.00;90.00
16287;DHT22;8251;53.568;10.018;2023-07-30T08:01:25;23.20;89.60
16287;DHT22;8251;53.568;10.018;2023-07-30T08:03:52;23.40;88.50
16287;DHT22;8251;53.568;10.018;2023-07-30T08:06:19;23.50;87.50
16287;DHT22;8251;53.568;10.018;2023-07-30T08:08:46;23.70;87.30
16287;DHT22;8251;53.568;10.018;2023-07-30T08:11:15;23.80;86.90
16287;DHT22;8251;53.568;10.018;2023-07-30T08:13:43;24.00;87.10
16287;DHT22;8251;53.568;10.018;2023-07-30T08:16:11;24.30;86.40
16287;DHT22;8251;53.568;10.018;2023-07-30T08:18:38;24.60;85.50
16287;DHT22;8251;53.568;10.018;2023-07-30T08:21:05;25.10;83.60
16287;DHT22;8251;53.568;10.018;2023-07-30T08:23:33;25.40;82.20
16287;DHT22;8251;53.568;10.018;2023-07-30T08:26:01;25.60;80.80
16287;DHT22;8251;53.568;10.018;2023-07-30T08:28:29;25.90;79.50
16287;DHT22;8251;53.568;10.018;2023-07-30T08:31:00;26.20;78.30
16287;DHT22;8251;53.568;10.018;2023-07-30T08:33:27;26.60;77.40
16287;DHT22;8251;53.568;10.018;2023-07-30T08:35:55;27.00;75.70
16287;DHT22;8251;53.568;10.018;2023-07-30T08:38:22;27.50;74.30
16287;DHT22;8251;53.568;10.018;2023-07-30T08:40:49;27.80;72.80
16287;DHT22;8251;53.568;10.018;2023-07-30T08:43:17;28.00;71.00
16287;DHT22;8251;53.568;10.018;2023-07-30T08:45:46;28.10;70.70
16287;DHT22;8251;53.568;10.018;2023-07-30T08:48:13;28.20;70.70
16287;DHT22;8251;53.568;10.018;2023-07-30T08:50:40;28.30;69.90
16287;DHT22;8251;53.568;10.018;2023-07-30T08:53:08;28.40;69.20
16287;DHT22;8251;53.568;10.018;2023-07-30T08:55:36;28.40;68.30
16287;DHT22;8251;53.568;10.018;2023-07-30T08:58:06;28.40;68.40
16287;DHT22;8251;53.568;10.018;2023-07-30T09:00:35;28.00;67.70
16287;DHT22;8251;53.568;10.018;2023-07-30T09:03:05;27.70;67.80
16287;DHT22;8251;53.568;10.018;2023-07-30T09:05:32;27.30;69.00
16287;DHT22;8251;53.568;10.018;2023-07-30T09:07:59;27.10;70.30
16287;DHT22;8251;53.568;10.018;2023-07-30T09:10:28;26.80;70.70
16287;DHT22;8251;53.568;10.018;2023-07-30T09:12:55;26.80;71.30
16287;DHT22;8251;53.568;10.018;2023-07-30T09:15:30;26.80;72.00
16287;DHT22;8251;53.568;10.018;2023-07-30T09:17:58;27.00;72.50
16287;DHT22;8251;53.568;10.018;2023-07-30T09:20:27;26.90;71.70
16287;DHT22;8251;53.568;10.018;2023-07-30T09:22:56;26.90;71.80
16287;DHT22;8251;53.568;10.018;2023-07-30T09:25:24;26.80;71.30
16287;DHT22;8251;53.568;10.018;2023-07-30T09:27:52;26.80;71.20
16287;DHT22;8251;53.568;10.018;2023-07-30T09:30:22;26.60;71.40
16287;DHT22;8251;53.568;10.018;2023-07-30T09:32:51;26.50;72.00
16287;DHT22;8251;53.568;10.018;2023-07-30T09:35:19;26.40;72.10
16287;DHT22;8251;53.568;10.018;2023-07-30T09:37:48;26.30;72.20
16287;DHT22;8251;53.568;10.018;2023-07-30T09:40:16;26.30;71.90
16287;DHT22;8251;53.568;10.018;2023-07-30T09:42:45;26.20;72.60
16287;DHT22;8251;53.568;10.018;2023-07-30T09:45:23;26.20;72.70
16287;DHT22;8251;53.568;10.018;2023-07-30T09:47:51;26.20;72.40
16287;DHT22;8251;53.568;10.018;2023-07-30T09:50:19;26.30;72.70
16287;DHT22;8251;53.568;10.018;2023-07-30T09:52:49;26.20;72.30
16287;DHT22;8251;53.568;10.018;2023-07-30T09:55:16;26.20;73.10
16287;DHT22;8251;53.568;10.018;2023-07-30T09:57:44;26.20;73.00
16287;DHT22;8251;53.568;10.018;2023-07-30T10:00:11;26.10;72.40
16287;DHT22;8251;53.568;10.018;2023-07-30T10:02:39;25.90;71.90
16287;DHT22;8251;53.568;10.018;2023-07-30T10:05:11;25.80;73.60
16287;DHT22;8251;53.568;10.018;2023-07-30T10:07:44;25.80;73.30
16287;DHT22;8251;53.568;10.018;2023-07-30T10:10:15;26.00;73.10
16287;DHT22;8251;53.568;10.018;2023-07-30T10:12:44;26.00;71.60
16287;DHT22;8251;53.568;10.018;2023-07-30T10:15:11;26.00;70.30
16287;DHT22;8251;53.568;10.018;2023-07-30T10:17:44;26.00;70.30
16287;DHT22;8251;53.568;10.018;2023-07-30T10:20:27;25.80;70.20
16287;DHT22;8251;53.568;10.018;2023-07-30T10:23:03;25.70;70.10
16287;DHT22;8251;53.568;10.018;2023-07-30T10:25:46;25.60;70.80
16287;DHT22;8251;53.568;10.018;2023-07-30T10:28:33;25.50;71.20
16287;DHT22;8251;53.568;10.018;2023-07-30T10:31:04;25.50;71.70
16287;DHT22;8251;53.568;10.018;2023-07-30T10:33:47;25.30;71.70
16287;DHT22;8251;53.568;10.018;2023-07-30T10:36:17;25.40;72.90
16287;DHT22;8251;53.568;10.018;2023-07-30T10:38:46;25.50;72.70
16287;DHT22;8251;53.568;10.018;2023-07-30T10:41:15;25.60;71.90
16287;DHT22;8251;53.568;10.018;2023-07-30T10:43:45;25.70;70.30
16287;DHT22;8251;53.568;10.018;2023-07-30T10:46:14;25.70;70.30
16287;DHT22;8251;53.568;10.018;2023-07-30T10:48:43;25.60;70.00
16287;DHT22;8251;53.568;10.018;2023-07-30T10:51:11;25.50;69.90
16287;DHT22;8251;53.568;10.018;2023-07-30T10:53:38;25.40;70.20
16287;DHT22;8251;53.568;10.018;2023-07-30T10:56:06;25.40;70.90
16287;DHT22;8251;53.568;10.018;2023-07-30T10:58:36;25.40;71.00
16287;DHT22;8251;53.568;10.018;2023-07-30T11:01:04;25.30;70.50
16287;DHT22;8251;53.568;10.018;2023-07-30T11:03:32;25.20;70.30
16287;DHT22;8251;53.568;10.018;2023-07-30T11:05:59;25.20;69.60
16287;DHT22;8251;53.568;10.018;2023-07-30T11:08:33;25.20;70.00
16287;DHT22;8251;53.568;10.018;2023-07-30T11:11:00;25.20;69.60
16287;DHT22;8251;53.568;10.018;2023-07-30T11:13:27;25.00;69.60
16287;DHT22;8251;53.568;10.018;2023-07-30T11:15:56;25.00;69.40
16287;DHT22;8251;53.568;10.018;2023-07-30T11:18:23;25.10;69.90
16287;DHT22;8251;53.568;10.018;2023-07-30T11:20:50;25.20;70.00
16287;DHT22;8251;53.568;10.018;2023-07-30T11:23:19;25.30;70.30
16287;DHT22;8251;53.568;10.018;2023-07-30T11:25:47;25.40;69.70
16287;DHT22;8251;53.568;10.018;2023-07-30T11:28:26;25.60;68.90
16287;DHT22;8251;53.568;10.018;2023-07-30T11:30:53;26.00;68.50
16287;DHT22;8251;53.568;10.018;2023-07-30T11:33:22;26.30;67.60
16287;DHT22;8251;53.568;10.018;2023-07-30T11:35:48;26.40;64.80
16287;DHT22;8251;53.568;10.018;2023-07-30T11:38:15;26.50;65.60
16287;DHT22;8251;53.568;10.018;2023-07-30T11:40:43;26.50;64.80
16287;DHT22;8251;53.568;10.018;2023-07-30T11:43:10;26.60;64.50
16287;DHT22;8251;53.568;10.018;2023-07-30T11:45:37;26.60;64.60
16287;DHT22;8251;53.568;10.018;2023-07-30T11:48:07;26.80;64.60
16287;DHT22;8251;53.568;10.018;2023-07-30T11:50:46;26.90;63.20
16287;DHT22;8251;53.568;10.018;2023-07-30T11:53:13;27.20;63.90
16287;DHT22;8251;53.568;10.018;2023-07-30T11:55:41;27.40;63.30
16287;DHT22;8251;53.568;10.018;2023-07-30T11:58:09;27.60;61.50
16287;DHT22;8251;53.568;10.018;2023-07-30T12:00:36;27.80;60.80
16287;DHT22;8251;53.568;10.018;2023-07-30T12:03:04;28.00;60.30
16287;DHT22;8251;53.568;10.018;2023-07-30T12:05:32;28.20;59.90
16287;DHT22;8251;53.568;10.018;2023-07-30T12:08:02;28.40;59.00
16287;DHT22;8251;53.568;10.018;2023-07-30T12:10:41;28.50;58.80
16287;DHT22;8251;53.568;10.018;2023-07-30T12:13:11;28.50;57.20
16287;DHT22;8251;53.568;10.018;2023-07-30T12:15:38;28.50;58.40
16287;DHT22;8251;53.568;10.018;2023-07-30T12:18:05;28.50;58.60
16287;DHT22;8251;53.568;10.018;2023-07-30T12:20:32;28.50;58.50
16287;DHT22;8251;53.568;10.018;2023-07-30T12:23:00;28.60;59.10
16287;DHT22;8251;53.568;10.018;2023-07-30T12:25:28;28.70;57.50
16287;DHT22;8251;53.568;10.018;2023-07-30T12:27:55;28.60;57.30
16287;DHT22;8251;53.568;10.018;2023-07-30T12:30:22;28.50;57.40
16287;DHT22;8251;53.568;10.018;2023-07-30T12:32:49;28.50;57.40
16287;DHT22;8251;53.568;10.018;2023-07-30T12:35:15;28.60;57.50
16287;DHT22;8251;53.568;10.018;2023-07-30T12:37:42;28.70;57.40
16287;DHT22;8251;53.568;10.018;2023-07-30T12:40:11;28.80;55.70
16287;DHT22;8251;53.568;10.018;2023-07-30T12:42:38;28.90;56.30
16287;DHT22;8251;53.568;10.018;2023-07-30T12:45:07;28.90;55.40
16287;DHT22;8251;53.568;10.018;2023-07-30T12:47:33;28.80;55.30
16287;DHT22;8251;53.568;10.018;2023-07-30T12:50:01;28.70;56.00
16287;DHT22;8251;53.568;10.018;2023-07-30T12:52:27;28.50;55.60
16287;DHT22;8251;53.568;10.018;2023-07-30T12:54:56;28.20;55.00
16287;DHT22;8251;53.568;10.018;2023-07-30T12:57:25;28.10;55.60
16287;DHT22;8251;53.568;10.018;2023-07-30T12:59:51;28.00;55.60
16287;DHT22;8251;53.568;10.018;2023-07-30T13:02:18;27.80;56.00
16287;DHT22;8251;53.568;10.018;2023-07-30T13:04:45;27.70;56.00
16287;DHT22;8251;53.568;10.018;2023-07-30T13:07:12;27.60;55.80
16287;DHT22;8251;53.568;10.018;2023-07-30T13:09:39;27.30;55.70
16287;DHT22;8251;53.568;10.018;2023-07-30T13:12:06;27.20;56.60
16287;DHT22;8251;53.568;10.018;2023-07-30T13:14:35;26.90;57.50
16287;DHT22;8251;53.568;10.018;2023-07-30T13:17:05;26.40;61.60
16287;DHT22;8251;53.568;10.018;2023-07-30T13:19:33;25.90;65.90
16287;DHT22;8251;53.568;10.018;2023-07-30T13:22:00;25.20;67.10
16287;DHT22;8251;53.568;10.018;2023-07-30T13:24:27;24.50;68.20
16287;DHT22;8251;53.568;10.018;2023-07-30T13:26:55;24.10;69.70
16287;DHT22;8251;53.568;10.018;2023-07-30T13:29:21;23.60;71.40
16287;DHT22;8251;53.568;10.018;2023-07-30T13:31:50;23.30;72.10
16287;DHT22;8251;53.568;10.018;2023-07-30T13:34:16;23.00;73.70
16287;DHT22;8251;53.568;10.018;2023-07-30T13:36:43;22.80;74.80
16287;DHT22;8251;53.568;10.018;2023-07-30T13:39:10;22.70;75.90
16287;DHT22;8251;53.568;10.018;2023-07-30T13:41:36;22.50;76.70
16287;DHT22;8251;53.568;10.018;2023-07-30T13:44:03;22.30;77.60
16287;DHT22;8251;53.568;10.018;2023-07-30T13:46:31;22.20;78.60
16287;DHT22;8251;53.568;10.018;2023-07-30T13:48:59;22.20;79.40
16287;DHT22;8251;53.568;10.018;2023-07-30T13:51:25;22.10;80.00
16287;DHT22;8251;53.568;10.018;2023-07-30T13:53:57;22.00;80.30
16287;DHT22;8251;53.568;10.018;2023-07-30T13:56:24;22.00;80.80
16287;DHT22;8251;53.568;10.018;2023-07-30T13:58:51;21.90;81.50
16287;DHT22;8251;53.568;10.018;2023-07-30T14:01:18;21.90;81.90
16287;DHT22;8251;53.568;10.018;2023-07-30T14:03:44;21.90;82.30
16287;DHT22;8251;53.568;10.018;2023-07-30T14:06:13;21.80;82.30
16287;DHT22;8251;53.568;10.018;2023-07-30T14:08:40;21.80;82.90
16287;DHT22;8251;53.568;10.018;2023-07-30T14:11:07;21.80;83.40
16287;DHT22;8251;53.568;10.018;2023-07-30T14:13:33;21.80;82.70
16287;DHT22;8251;53.568;10.018;2023-07-30T14:16:00;21.70;82.70
16287;DHT22;8251;53.568;10.018;2023-07-30T14:18:27;21.90;83.10
16287;DHT22;8251;53.568;10.018;2023-07-30T14:20:54;22.00;83.50
16287;DHT22;8251;53.568;10.018;2023-07-30T14:23:22;22.10;83.20
16287;DHT22;8251;53.568;10.018;2023-07-30T14:25:49;22.20;82.50
16287;DHT22;8251;53.568;10.018;2023-07-30T14:28:16;22.40;82.10
16287;DHT22;8251;53.568;10.018;2023-07-30T14:30:43;22.50;82.00
16287;DHT22;8251;53.568;10.018;2023-07-30T14:33:10;22.70;82.20
16287;DHT22;8251;53.568;10.018;2023-07-30T14:35:37;22.80;80.60
16287;DHT22;8251;53.568;10.018;2023-07-30T14:38:04;22.90;81.10
16287;DHT22;8251;53.568;10.018;2023-07-30T14:40:32;23.10;80.60
16287;DHT22;8251;53.568;10.018;2023-07-30T14:42:59;23.30;78.90
16287;DHT22;8251;53.568;10.018;2023-07-30T14:45:26;23.40;77.30
16287;DHT22;8251;53.568;10.018;2023-07-30T14:47:53;23.50;77.40
16287;DHT22;8251;53.568;10.018;2023-07-30T14:50:19;23.60;78.20
16287;DHT22;8251;53.568;10.018;2023-07-30T14:52:46;23.70;78.40
16287;DHT22;8251;53.568;10.018;2023-07-30T14:55:13;23.90;77.00
16287;DHT22;8251;53.568;10.018;2023-07-30T14:57:42;23.90;76.80
16287;DHT22;8251;53.568;10.018;2023-07-30T15:00:10;24.00;76.70
16287;DHT22;8251;53.568;10.018;2023-07-30T15:02:38;24.00;76.10
16287;DHT22;8251;53.568;10.018;2023-07-30T15:05:06;24.10;75.60
16287;DHT22;8251;53.568;10.018;2023-07-30T15:07:34;24.20;74.30
16287;DHT22;8251;53.568;10.018;2023-07-30T15:10:01;24.30;73.60
16287;DHT22;8251;53.568;10.018;2023-07-30T15:12:28;24.40;73.10
16287;DHT22;8251;53.568;10.018;2023-07-30T15:15:00;24.40;72.40
16287;DHT22;8251;53.568;10.018;2023-07-30T15:17:31;24.50;71.00
16287;DHT22;8251;53.568;10.018;2023-07-30T15:19:58;24.40;70.50
16287;DHT22;8251;53.568;10.018;2023-07-30T15:22:25;24.40;70.90
16287;DHT22;8251;53.568;10.018;2023-07-30T15:24:52;24.40;70.90
16287;DHT22;8251;53.568;10.018;2023-07-30T15:27:19;24.40;70.70
16287;DHT22;8251;53.568;10.018;2023-07-30T15:29:45;24.30;70.90
16287;DHT22;8251;53.568;10.018;2023-07-30T15:32:14;24.20;71.60